sensor_id;sensor_type;location;lat;lon;timestamp;pressure;altitude;pressure_sealevel;temperature;humidity
84764;BME280;74992;51.072;6.088;2024-03-06T00:00:11;101498.94;;;6.82;88.40
84764;BME280;74992;51.072;6.088;2024-03-06T00:03:12;101501.38;;;6.77;88.55
84764;BME280;74992;51.072;6.088;2024-03-06T00:06:14;101502.22;;;6.76;87.55
84764;BME280;74992;51.072;6.088;2024-03-06T00:09:15;101507.25;;;6.73;87.80
84764;BME280;74992;51.072;6.088;2024-03-06T00:12:18;101503.91;;;6.76;87.48
84764;BME280;74992;51.072;6.088;2024-03-06T00:15:20;101505.25;;;6.64;88.21
84764;BME280;74992;51.072;6.088;2024-03-06T00:18:21;101510.56;;;6.43;88.33
84764;BME280;74992;51.072;6.088;2024-03-06T00:21:22;101507.75;;;6.36;88.94
84764;BME280;74992;51.072;6.088;2024-03-06T00:24:24;101522.06;;;6.29;89.12
84764;BME280;74992;51.072;6.088;2024-03-06T00:27:26;101523.97;;;6.35;88.48
84764;BME280;74992;51.072;6.088;2024-03-06T00:30:28;101524.69;;;6.31;88.03
84764;BME280;74992;51.072;6.088;2024-03-06T00:33:31;101526.56;;;6.11;88.40
84764;BME280;74992;51.072;6.088;2024-03-06T00:36:33;101523.41;;;6.18;88.84
84764;BME280;74992;51.072;6.088;2024-03-06T00:39:35;101522.19;;;6.07;88.74
84764;BME280;74992;51.072;6.088;2024-03-06T00:42:37;101526.22;;;6.00;88.06
84764;BME280;74992;51.072;6.088;2024-03-06T00:45:40;101525.94;;;5.69;88.93
84764;BME280;74992;51.072;6.088;2024-03-06T00:48:42;101531.22;;;5.49;89.78
84764;BME280;74992;51.072;6.088;2024-03-06T00:51:43;101535.94;;;5.39;91.15
84764;BME280;74992;51.072;6.088;2024-03-06T00:54:45;101537.97;;;5.47;90.54
84764;BME280;74992;51.072;6.088;2024-03-06T00:57:46;101543.91;;;5.46;90.88
84764;BME280;74992;51.072;6.088;2024-03-06T01:00:48;101551.25;;;5.37;90.33
84764;BME280;74992;51.072;6.088;2024-03-06T01:03:49;101554.88;;;5.44;90.08
84764;BME280;74992;51.072;6.088;2024-03-06T01:06:51;101562.53;;;5.66;89.08
84764;BME280;74992;51.072;6.088;2024-03-06T01:09:52;101561.22;;;5.53;89.09
84764;BME280;74992;51.072;6.088;2024-03-06T01:12:54;101563.28;;;5.40;89.11
84764;BME280;74992;51.072;6.088;2024-03-06T01:15:55;101567.72;;;5.21;89.80
84764;BME280;74992;51.072;6.088;2024-03-06T01:18:57;101566.69;;;4.95;90.62
84764;BME280;74992;51.072;6.088;2024-03-06T01:21:58;101570.00;;;4.93;91.59
84764;BME280;74992;51.072;6.088;2024-03-06T01:25:00;101569.19;;;4.94;92.29
84764;BME280;74992;51.072;6.088;2024-03-06T01:28:03;101576.88;;;4.94;92.06
84764;BME280;74992;51.072;6.088;2024-03-06T01:31:05;101572.25;;;4.85;92.58
84764;BME280;74992;51.072;6.088;2024-03-06T01:34:06;101570.47;;;4.83;92.10
84764;BME280;74992;51.072;6.088;2024-03-06T01:37:08;101571.22;;;4.80;92.20
84764;BME280;74992;51.072;6.088;2024-03-06T01:40:10;101570.50;;;4.84;91.84
84764;BME280;74992;51.072;6.088;2024-03-06T01:43:19;101572.41;;;4.67;92.19
84764;BME280;74992;51.072;6.088;2024-03-06T01:46:21;101580.69;;;4.62;92.34
84764;BME280;74992;51.072;6.088;2024-03-06T01:49:24;101584.69;;;4.55;93.08
84764;BME280;74992;51.072;6.088;2024-03-06T01:52:38;101588.81;;;4.52;92.25
84764;BME280;74992;51.072;6.088;2024-03-06T01:55:41;101591.00;;;4.63;92.51
84764;BME280;74992;51.072;6.088;2024-03-06T01:58:42;101590.75;;;4.78;92.60
84764;BME280;74992;51.072;6.088;2024-03-06T02:01:46;101591.78;;;4.83;92.65
84764;BME280;74992;51.072;6.088;2024-03-06T02:04:48;101588.78;;;4.93;91.90
84764;BME280;74992;51.072;6.088;2024-03-06T02:07:49;101594.09;;;4.98;90.83
84764;BME280;74992;51.072;6.088;2024-03-06T02:10:52;101598.31;;;4.97;90.08
84764;BME280;74992;51.072;6.088;2024-03-06T02:13:57;101596.09;;;4.84;90.08
84764;BME280;74992;51.072;6.088;2024-03-06T02:16:59;101600.03;;;4.76;90.51
84764;BME280;74992;51.072;6.088;2024-03-06T02:20:01;101602.88;;;4.84;91.09
84764;BME280;74992;51.072;6.088;2024-03-06T02:23:05;101600.53;;;4.67;90.87
84764;BME280;74992;51.072;6.088;2024-03-06T02:26:07;101595.72;;;4.54;90.86
84764;BME280;74992;51.072;6.088;2024-03-06T02:29:08;101595.59;;;4.51;90.17
84764;BME280;74992;51.072;6.088;2024-03-06T02:32:12;101601.06;;;4.60;90.31
84764;BME280;74992;51.072;6.088;2024-03-06T02:35:13;101599.31;;;4.38;90.49
84764;BME280;74992;51.072;6.088;2024-03-06T02:38:15;101606.69;;;4.31;90.87
84764;BME280;74992;51.072;6.088;2024-03-06T02:41:16;101606.53;;;4.28;91.94
84764;BME280;74992;51.072;6.088;2024-03-06T02:44:18;101601.09;;;4.20;90.77
84764;BME280;74992;51.072;6.088;2024-03-06T02:47:19;101604.59;;;4.22;90.88
84764;BME280;74992;51.072;6.088;2024-03-06T02:50:21;101603.13;;;4.08;91.29
84764;BME280;74992;51.072;6.088;2024-03-06T02:53:23;101599.88;;;4.31;90.61
84764;BME280;74992;51.072;6.088;2024-03-06T02:56:25;101602.09;;;4.24;90.92
84764;BME280;74992;51.072;6.088;2024-03-06T02:59:26;101604.47;;;4.19;90.37
84764;BME280;74992;51.072;6.088;2024-03-06T03:02:28;101601.72;;;4.15;90.04
84764;BME280;74992;51.072;6.088;2024-03-06T03:05:29;101603.13;;;4.08;90.66
84764;BME280;74992;51.072;6.088;2024-03-06T03:08:31;101606.75;;;4.13;90.98
84764;BME280;74992;51.072;6.088;2024-03-06T03:11:32;101604.06;;;3.91;90.44
84764;BME280;74992;51.072;6.088;2024-03-06T03:14:35;101607.13;;;3.82;90.63
84764;BME280;74992;51.072;6.088;2024-03-06T03:17:38;101607.31;;;3.87;90.34
84764;BME280;74992;51.072;6.088;2024-03-06T03:20:40;101605.22;;;3.78;90.76
84764;BME280;74992;51.072;6.088;2024-03-06T03:23:41;101608.53;;;3.95;90.21
84764;BME280;74992;51.072;6.088;2024-03-06T03:26:42;101612.06;;;3.98;90.21
84764;BME280;74992;51.072;6.088;2024-03-06T03:29:44;101620.53;;;3.78;89.86
84764;BME280;74992;51.072;6.088;2024-03-06T03:32:45;101613.19;;;3.66;90.26
84764;BME280;74992;51.072;6.088;2024-03-06T03:35:47;101619.72;;;3.60;90.52
84764;BME280;74992;51.072;6.088;2024-03-06T03:38:48;101624.16;;;3.64;90.10
84764;BME280;74992;51.072;6.088;2024-03-06T03:41:51;101626.19;;;3.71;90.18
84764;BME280;74992;51.072;6.088;2024-03-06T03:44:52;101621.16;;;3.55;90.06
84764;BME280;74992;51.072;6.088;2024-03-06T03:47:54;101621.53;;;3.62;90.38
84764;BME280;74992;51.072;6.088;2024-03-06T03:50:55;101622.72;;;3.51;90.41
84764;BME280;74992;51.072;6.088;2024-03-06T03:53:56;101624.97;;;3.45;89.91
84764;BME280;74992;51.072;6.088;2024-03-06T03:56:58;101629.50;;;3.33;89.68
84764;BME280;74992;51.072;6.088;2024-03-06T04:00:00;101627.75;;;3.32;90.92
84764;BME280;74992;51.072;6.088;2024-03-06T04:03:02;101633.97;;;3.37;90.57
84764;BME280;74992;51.072;6.088;2024-03-06T04:06:04;101637.34;;;3.36;90.79
84764;BME280;74992;51.072;6.088;2024-03-06T04:09:06;101646.44;;;3.48;90.52
84764;BME280;74992;51.072;6.088;2024-03-06T04:12:09;101644.00;;;3.51;90.03
84764;BME280;74992;51.072;6.088;2024-03-06T04:15:11;101642.63;;;3.40;90.07
84764;BME280;74992;51.072;6.088;2024-03-06T04:18:13;101651.22;;;3.60;88.76
84764;BME280;74992;51.072;6.088;2024-03-06T04:21:15;101657.03;;;3.58;88.48
84764;BME280;74992;51.072;6.088;2024-03-06T04:24:17;101658.88;;;3.60;89.09
84764;BME280;74992;51.072;6.088;2024-03-06T04:27:18;101669.69;;;3.37;89.41
84764;BME280;74992;51.072;6.088;2024-03-06T04:30:20;101661.72;;;3.31;89.45
84764;BME280;74992;51.072;6.088;2024-03-06T04:33:21;101672.06;;;3.34;89.71
84764;BME280;74992;51.072;6.088;2024-03-06T04:36:22;101672.81;;;3.31;89.30
84764;BME280;74992;51.072;6.088;2024-03-06T04:39:24;101676.44;;;3.18;89.80
84764;BME280;74992;51.072;6.088;2024-03-06T04:42:25;101679.72;;;3.34;89.50
84764;BME280;74992;51.072;6.088;2024-03-06T04:45:27;101683.81;;;3.30;89.37
84764;BME280;74992;51.072;6.088;2024-03-06T04:48:29;101676.31;;;3.15;89.33
84764;BME280;74992;51.072;6.088;2024-03-06T04:51:30;101679.81;;;3.17;90.20
84764;BME280;74992;51.072;6.088;2024-03-06T04:54:32;101685.91;;;3.21;89.74
84764;BME280;74992;51.072;6.088;2024-03-06T04:57:34;101692.91;;;3.07;90.50
84764;BME280;74992;51.072;6.088;2024-03-06T05:00:35;101686.13;;;2.90;91.31
84764;BME280;74992;51.072;6.088;2024-03-06T05:03:38;101693.94;;;2.77;91.70
84764;BME280;74992;51.072;6.088;2024-03-06T05:06:42;101696.53;;;2.60;91.21
84764;BME280;74992;51.072;6.088;2024-03-06T05:09:45;101698.75;;;2.54;91.18
84764;BME280;74992;51.072;6.088;2024-03-06T05:12:46;101699.56;;;2.87;91.16
84764;BME280;74992;51.072;6.088;2024-03-06T05:15:48;101710.38;;;2.66;91.28
84764;BME280;74992;51.072;6.088;2024-03-06T05:18:49;101714.63;;;2.49;91.15
84764;BME280;74992;51.072;6.088;2024-03-06T05:21:51;101712.47;;;2.56;91.66
84764;BME280;74992;51.072;6.088;2024-03-06T05:24:52;101717.78;;;2.61;92.39
84764;BME280;74992;51.072;6.088;2024-03-06T05:27:55;101724.66;;;2.46;92.18
84764;BME280;74992;51.072;6.088;2024-03-06T05:30:56;101724.56;;;2.60;92.45
84764;BME280;74992;51.072;6.088;2024-03-06T05:33:57;101722.44;;;2.86;91.78
84764;BME280;74992;51.072;6.088;2024-03-06T05:37:01;101730.47;;;2.93;90.98
84764;BME280;74992;51.072;6.088;2024-03-06T05:40:05;101738.53;;;2.85;90.27
84764;BME280;74992;51.072;6.088;2024-03-06T05:43:06;101737.78;;;2.70;91.25
84764;BME280;74992;51.072;6.088;2024-03-06T05:46:08;101737.88;;;2.89;91.27
84764;BME280;74992;51.072;6.088;2024-03-06T05:49:09;101746.19;;;2.85;91.44
84764;BME280;74992;51.072;6.088;2024-03-06T05:52:11;101751.00;;;2.46;91.59
84764;BME280;74992;51.072;6.088;2024-03-06T05:55:12;101756.41;;;2.52;91.78
84764;BME280;74992;51.072;6.088;2024-03-06T05:58:14;101762.38;;;2.69;92.94
84764;BME280;74992;51.072;6.088;2024-03-06T06:01:18;101765.06;;;2.88;92.31
84764;BME280;74992;51.072;6.088;2024-03-06T06:04:20;101767.06;;;2.94;92.18
84764;BME280;74992;51.072;6.088;2024-03-06T06:07:22;101766.63;;;3.03;92.80
84764;BME280;74992;51.072;6.088;2024-03-06T06:10:23;101766.19;;;3.28;93.09
84764;BME280;74992;51.072;6.088;2024-03-06T06:13:24;101773.03;;;3.12;92.40
84764;BME280;74992;51.072;6.088;2024-03-06T06:16:26;101777.91;;;3.42;91.68
84764;BME280;74992;51.072;6.088;2024-03-06T06:19:27;101787.66;;;3.33;92.17
84764;BME280;74992;51.072;6.088;2024-03-06T06:22:29;101793.22;;;3.42;92.69
84764;BME280;74992;51.072;6.088;2024-03-06T06:25:30;101785.50;;;3.58;92.72
84764;BME280;74992;51.072;6.088;2024-03-06T06:28:32;101787.25;;;3.77;92.25
84764;BME280;74992;51.072;6.088;2024-03-06T06:31:33;101795.00;;;3.78;90.79
84764;BME280;74992;51.072;6.088;2024-03-06T06:34:34;101793.97;;;3.75;91.08
84764;BME280;74992;51.072;6.088;2024-03-06T06:37:36;101811.34;;;3.82;91.39
84764;BME280;74992;51.072;6.088;2024-03-06T06:40:37;101806.66;;;3.91;91.22
84764;BME280;74992;51.072;6.088;2024-03-06T06:43:41;101811.63;;;4.06;91.32
84764;BME280;74992;51.072;6.088;2024-03-06T06:46:43;101812.06;;;3.97;91.10
84764;BME280;74992;51.072;6.088;2024-03-06T06:49:45;101819.28;;;4.06;91.05
84764;BME280;74992;51.072;6.088;2024-03-06T06:52:46;101820.72;;;4.19;90.76
84764;BME280;74992;51.072;6.088;2024-03-06T06:55:48;101815.88;;;4.05;89.78
84764;BME280;74992;51.072;6.088;2024-03-06T06:58:50;101827.97;;;4.09;89.51
84764;BME280;74992;51.072;6.088;2024-03-06T07:01:52;101829.91;;;4.33;89.95
84764;BME280;74992;51.072;6.088;2024-03-06T07:04:54;101830.38;;;4.63;90.15
84764;BME280;74992;51.072;6.088;2024-03-06T07:07:55;101829.06;;;4.71;89.94
84764;BME280;74992;51.072;6.088;2024-03-06T07:10:56;101829.00;;;4.89;87.48
84764;BME280;74992;51.072;6.088;2024-03-06T07:13:58;101832.09;;;5.01;86.89
84764;BME280;74992;51.072;6.088;2024-03-06T07:17:00;101833.59;;;5.17;87.32
84764;BME280;74992;51.072;6.088;2024-03-06T07:20:01;101837.78;;;5.34;86.58
84764;BME280;74992;51.072;6.088;2024-03-06T07:23:05;101852.94;;;5.50;86.59
84764;BME280;74992;51.072;6.088;2024-03-06T07:26:06;101848.31;;;5.63;85.38
84764;BME280;74992;51.072;6.088;2024-03-06T07:29:07;101846.63;;;5.84;84.29
84764;BME280;74992;51.072;6.088;2024-03-06T07:32:14;101851.34;;;5.94;84.28
84764;BME280;74992;51.072;6.088;2024-03-06T07:35:18;101852.66;;;6.05;83.79
84764;BME280;74992;51.072;6.088;2024-03-06T07:38:19;101863.19;;;6.13;85.23
84764;BME280;74992;51.072;6.088;2024-03-06T07:41:21;101864.34;;;6.21;85.51
84764;BME280;74992;51.072;6.088;2024-03-06T07:44:22;101868.88;;;6.27;83.88
84764;BME280;74992;51.072;6.088;2024-03-06T07:47:24;101870.78;;;6.32;83.12
84764;BME280;74992;51.072;6.088;2024-03-06T07:50:26;101872.81;;;6.41;83.41
84764;BME280;74992;51.072;6.088;2024-03-06T07:53:27;101882.72;;;6.54;83.75
84764;BME280;74992;51.072;6.088;2024-03-06T07:56:28;101877.69;;;6.57;83.84
84764;BME280;74992;51.072;6.088;2024-03-06T07:59:30;101882.16;;;6.61;83.70
84764;BME280;74992;51.072;6.088;2024-03-06T08:02:31;101884.97;;;6.69;83.62
84764;BME280;74992;51.072;6.088;2024-03-06T08:05:33;101889.63;;;6.79;84.49
84764;BME280;74992;51.072;6.088;2024-03-06T08:08:35;101890.41;;;6.77;83.10
84764;BME280;74992;51.072;6.088;2024-03-06T08:11:36;101892.03;;;6.75;83.29
84764;BME280;74992;51.072;6.088;2024-03-06T08:14:38;101894.66;;;6.76;84.22
84764;BME280;74992;51.072;6.088;2024-03-06T08:17:41;101893.06;;;6.80;84.25
84764;BME280;74992;51.072;6.088;2024-03-06T08:20:43;101900.88;;;6.83;83.77
84764;BME280;74992;51.072;6.088;2024-03-06T08:23:45;101900.13;;;6.85;83.16
84764;BME280;74992;51.072;6.088;2024-03-06T08:26:48;101903.44;;;6.83;83.40
84764;BME280;74992;51.072;6.088;2024-03-06T08:29:50;101905.06;;;7.03;83.15
84764;BME280;74992;51.072;6.088;2024-03-06T08:32:51;101915.06;;;7.19;82.87
84764;BME280;74992;51.072;6.088;2024-03-06T08:35:53;101911.69;;;6.96;81.93
84764;BME280;74992;51.072;6.088;2024-03-06T08:38:54;101923.06;;;7.05;82.26
84764;BME280;74992;51.072;6.088;2024-03-06T08:41:56;101919.44;;;7.22;81.85
84764;BME280;74992;51.072;6.088;2024-03-06T08:44:59;101925.81;;;7.09;81.01
84764;BME280;74992;51.072;6.088;2024-03-06T08:48:01;101929.41;;;7.14;79.89
84764;BME280;74992;51.072;6.088;2024-03-06T08:51:03;101936.91;;;7.32;79.78
84764;BME280;74992;51.072;6.088;2024-03-06T08:54:10;101935.88;;;7.52;78.52
84764;BME280;74992;51.072;6.088;2024-03-06T08:57:12;101942.72;;;7.52;76.61
84764;BME280;74992;51.072;6.088;2024-03-06T09:00:13;101938.56;;;7.79;75.84
84764;BME280;74992;51.072;6.088;2024-03-06T09:03:16;101943.75;;;8.08;75.94
84764;BME280;74992;51.072;6.088;2024-03-06T09:06:18;101948.44;;;8.19;75.66
84764;BME280;74992;51.072;6.088;2024-03-06T09:09:19;101950.47;;;8.03;75.83
84764;BME280;74992;51.072;6.088;2024-03-06T09:12:21;101944.13;;;8.18;75.27
84764;BME280;74992;51.072;6.088;2024-03-06T09:15:22;101950.38;;;8.27;76.68
84764;BME280;74992;51.072;6.088;2024-03-06T09:18:24;101954.25;;;8.39;76.18
84764;BME280;74992;51.072;6.088;2024-03-06T09:21:26;101946.88;;;8.50;74.99
84764;BME280;74992;51.072;6.088;2024-03-06T09:24:27;101955.47;;;8.51;75.18
84764;BME280;74992;51.072;6.088;2024-03-06T09:27:29;101955.03;;;8.65;74.76
84764;BME280;74992;51.072;6.088;2024-03-06T09:30:30;101961.72;;;8.87;73.41
84764;BME280;74992;51.072;6.088;2024-03-06T09:33:33;101967.94;;;8.94;72.19
84764;BME280;74992;51.072;6.088;2024-03-06T09:36:34;101969.50;;;8.90;73.19
84764;BME280;74992;51.072;6.088;2024-03-06T09:39:36;101965.50;;;8.70;74.59
84764;BME280;74992;51.072;6.088;2024-03-06T09:42:37;101967.56;;;8.55;74.30
84764;BME280;74992;51.072;6.088;2024-03-06T09:45:39;101958.44;;;8.64;76.49
84764;BME280;74992;51.072;6.088;2024-03-06T09:48:44;101961.97;;;8.68;73.30
84764;BME280;74992;51.072;6.088;2024-03-06T09:51:47;101963.00;;;8.73;72.90
84764;BME280;74992;51.072;6.088;2024-03-06T09:54:51;101979.41;;;8.76;74.40
84764;BME280;74992;51.072;6.088;2024-03-06T09:57:54;101976.28;;;8.87;76.65
84764;BME280;74992;51.072;6.088;2024-03-06T10:00:56;101976.47;;;8.93;74.56
84764;BME280;74992;51.072;6.088;2024-03-06T10:04:00;101977.09;;;9.14;73.83
84764;BME280;74992;51.072;6.088;2024-03-06T10:07:18;101981.63;;;9.23;74.53
84764;BME280;74992;51.072;6.088;2024-03-06T10:10:20;101985.22;;;9.28;74.71
84764;BME280;74992;51.072;6.088;2024-03-06T10:13:23;101984.88;;;9.16;72.56
84764;BME280;74992;51.072;6.088;2024-03-06T10:16:25;101989.47;;;8.97;72.20
84764;BME280;74992;51.072;6.088;2024-03-06T10:19:27;101998.66;;;8.89;73.79
84764;BME280;74992;51.072;6.088;2024-03-06T10:22:29;101990.28;;;8.95;73.53
84764;BME280;74992;51.072;6.088;2024-03-06T10:25:31;101989.00;;;9.11;75.58
84764;BME280;74992;51.072;6.088;2024-03-06T10:28:32;101999.53;;;9.18;73.55
84764;BME280;74992;51.072;6.088;2024-03-06T10:31:34;101997.47;;;9.06;74.22
84764;BME280;74992;51.072;6.088;2024-03-06T10:34:36;102003.09;;;8.93;74.06
84764;BME280;74992;51.072;6.088;2024-03-06T10:37:38;101995.06;;;8.83;75.03
84764;BME280;74992;51.072;6.088;2024-03-06T10:40:41;101999.41;;;8.85;75.93
84764;BME280;74992;51.072;6.088;2024-03-06T10:43:43;101997.94;;;8.93;76.16
84764;BME280;74992;51.072;6.088;2024-03-06T10:46:45;102001.44;;;8.95;74.84
84764;BME280;74992;51.072;6.088;2024-03-06T10:49:48;102004.72;;;8.91;76.25
84764;BME280;74992;51.072;6.088;2024-03-06T10:52:49;101999.50;;;8.88;74.03
84764;BME280;74992;51.072;6.088;2024-03-06T10:55:55;102003.06;;;8.92;73.69
84764;BME280;74992;51.072;6.088;2024-03-06T10:58:58;102001.56;;;9.00;73.63
84764;BME280;74992;51.072;6.088;2024-03-06T11:02:01;101997.16;;;8.96;74.24
84764;BME280;74992;51.072;6.088;2024-03-06T11:05:03;102002.94;;;8.89;74.57
84764;BME280;74992;51.072;6.088;2024-03-06T11:08:06;102001.97;;;9.14;74.05
84764;BME280;74992;51.072;6.088;2024-03-06T11:11:24;102012.34;;;9.47;71.44
84764;BME280;74992;51.072;6.088;2024-03-06T11:14:26;102008.72;;;9.70;72.07
84764;BME280;74992;51.072;6.088;2024-03-06T11:17:28;102013.59;;;9.92;70.74
84764;BME280;74992;51.072;6.088;2024-03-06T11:20:33;102007.56;;;10.23;66.67
84764;BME280;74992;51.072;6.088;2024-03-06T11:23:35;102005.78;;;10.57;65.23
84764;BME280;74992;51.072;6.088;2024-03-06T11:26:36;102012.84;;;11.02;65.46
84764;BME280;74992;51.072;6.088;2024-03-06T11:32:58;102006.28;;;11.61;63.11
84764;BME280;74992;51.072;6.088;2024-03-06T11:39:21;102018.00;;;11.86;61.01
84764;BME280;74992;51.072;6.088;2024-03-06T11:42:32;102010.53;;;12.03;61.24
84764;BME280;74992;51.072;6.088;2024-03-06T11:45:43;102012.16;;;11.96;58.77
84764;BME280;74992;51.072;6.088;2024-03-06T11:48:51;102013.75;;;11.90;57.58
84764;BME280;74992;51.072;6.088;2024-03-06T11:51:54;102010.38;;;11.94;58.92
84764;BME280;74992;51.072;6.088;2024-03-06T11:54:55;102008.91;;;12.08;56.92
84764;BME280;74992;51.072;6.088;2024-03-06T11:57:57;102008.00;;;12.06;57.69
84764;BME280;74992;51.072;6.088;2024-03-06T12:00:58;102009.97;;;12.19;58.68
84764;BME280;74992;51.072;6.088;2024-03-06T12:04:01;102005.69;;;12.21;56.12
84764;BME280;74992;51.072;6.088;2024-03-06T12:07:02;102008.94;;;12.11;56.37
84764;BME280;74992;51.072;6.088;2024-03-06T12:10:05;102008.53;;;11.88;58.81
84764;BME280;74992;51.072;6.088;2024-03-06T12:13:07;102011.19;;;11.91;57.96
84764;BME280;74992;51.072;6.088;2024-03-06T12:16:09;102011.38;;;12.02;58.08
84764;BME280;74992;51.072;6.088;2024-03-06T12:19:12;102007.19;;;12.09;56.11
84764;BME280;74992;51.072;6.088;2024-03-06T12:22:13;102008.28;;;12.23;55.76
84764;BME280;74992;51.072;6.088;2024-03-06T12:25:19;102004.16;;;12.34;56.89
84764;BME280;74992;51.072;6.088;2024-03-06T12:28:23;102011.97;;;12.37;52.47
84764;BME280;74992;51.072;6.088;2024-03-06T12:31:25;102013.56;;;12.27;55.00
84764;BME280;74992;51.072;6.088;2024-03-06T12:34:27;102008.44;;;12.31;57.85
84764;BME280;74992;51.072;6.088;2024-03-06T12:37:30;102014.72;;;12.46;58.53
84764;BME280;74992;51.072;6.088;2024-03-06T12:40:33;102008.97;;;12.66;57.78
84764;BME280;74992;51.072;6.088;2024-03-06T12:43:35;102010.19;;;12.91;54.91
84764;BME280;74992;51.072;6.088;2024-03-06T12:46:36;102004.16;;;12.92;55.46
84764;BME280;74992;51.072;6.088;2024-03-06T12:49:37;102003.72;;;13.22;56.95
84764;BME280;74992;51.072;6.088;2024-03-06T12:52:39;102001.34;;;13.41;55.51
84764;BME280;74992;51.072;6.088;2024-03-06T12:55:40;102008.50;;;13.61;54.68
84764;BME280;74992;51.072;6.088;2024-03-06T12:58:43;102010.34;;;13.69;52.95
84764;BME280;74992;51.072;6.088;2024-03-06T13:01:45;102006.25;;;13.91;52.66
84764;BME280;74992;51.072;6.088;2024-03-06T13:04:47;102001.97;;;13.99;53.32
84764;BME280;74992;51.072;6.088;2024-03-06T13:07:48;101998.47;;;13.93;50.76
84764;BME280;74992;51.072;6.088;2024-03-06T13:10:50;101996.25;;;13.48;49.69
84764;BME280;74992;51.072;6.088;2024-03-06T13:13:51;101997.72;;;13.24;54.25
84764;BME280;74992;51.072;6.088;2024-03-06T13:16:53;101996.81;;;13.21;51.96
84764;BME280;74992;51.072;6.088;2024-03-06T13:19:54;101999.44;;;13.24;52.40
84764;BME280;74992;51.072;6.088;2024-03-06T13:22:56;101996.56;;;13.07;54.07
84764;BME280;74992;51.072;6.088;2024-03-06T13:25:57;101995.13;;;13.24;52.00
84764;BME280;74992;51.072;6.088;2024-03-06T13:29:00;101992.81;;;13.49;50.32
84764;BME280;74992;51.072;6.088;2024-03-06T13:32:02;101995.63;;;13.67;51.92
84764;BME280;74992;51.072;6.088;2024-03-06T13:35:04;101998.44;;;13.90;53.18
84764;BME280;74992;51.072;6.088;2024-03-06T13:38:06;102006.28;;;13.97;50.35
84764;BME280;74992;51.072;6.088;2024-03-06T13:41:07;102002.84;;;14.00;45.45
84764;BME280;74992;51.072;6.088;2024-03-06T13:44:09;102000.28;;;14.03;46.47
84764;BME280;74992;51.072;6.088;2024-03-06T13:47:14;102008.06;;;14.01;46.74
84764;BME280;74992;51.072;6.088;2024-03-06T13:50:16;102006.25;;;13.93;45.24
84764;BME280;74992;51.072;6.088;2024-03-06T13:53:18;102007.78;;;13.76;46.00
84764;BME280;74992;51.072;6.088;2024-03-06T13:56:19;102007.50;;;13.47;45.74
84764;BME280;74992;51.072;6.088;2024-03-06T13:59:22;102014.25;;;13.34;46.84
84764;BME280;74992;51.072;6.088;2024-03-06T14:02:23;102010.38;;;13.06;47.70
84764;BME280;74992;51.072;6.088;2024-03-06T14:05:24;102018.06;;;12.97;48.81
84764;BME280;74992;51.072;6.088;2024-03-06T14:08:26;102019.47;;;12.75;49.12
84764;BME280;74992;51.072;6.088;2024-03-06T14:11:27;102015.75;;;12.57;49.73
84764;BME280;74992;51.072;6.088;2024-03-06T14:14:29;102020.94;;;12.57;49.00
84764;BME280;74992;51.072;6.088;2024-03-06T14:17:30;102021.78;;;12.56;50.83
84764;BME280;74992;51.072;6.088;2024-03-06T14:20:33;102019.88;;;12.46;48.44
84764;BME280;74992;51.072;6.088;2024-03-06T14:23:34;102019.00;;;12.44;50.14
84764;BME280;74992;51.072;6.088;2024-03-06T14:26:36;102018.53;;;12.71;49.24
84764;BME280;74992;51.072;6.088;2024-03-06T14:29:37;102019.53;;;12.81;47.41
84764;BME280;74992;51.072;6.088;2024-03-06T14:32:38;102025.44;;;12.71;49.21
84764;BME280;74992;51.072;6.088;2024-03-06T14:35:40;102020.31;;;12.74;48.44
84764;BME280;74992;51.072;6.088;2024-03-06T14:38:41;102022.91;;;12.74;47.86
84764;BME280;74992;51.072;6.088;2024-03-06T14:41:45;102022.81;;;12.69;48.55
84764;BME280;74992;51.072;6.088;2024-03-06T14:44:47;102017.41;;;12.52;49.82
84764;BME280;74992;51.072;6.088;2024-03-06T14:47:54;102022.38;;;12.40;48.87
84764;BME280;74992;51.072;6.088;2024-03-06T14:50:56;102018.81;;;12.34;49.16
84764;BME280;74992;51.072;6.088;2024-03-06T14:53:58;102023.97;;;12.32;49.22
84764;BME280;74992;51.072;6.088;2024-03-06T14:57:00;102021.25;;;12.24;49.04
84764;BME280;74992;51.072;6.088;2024-03-06T15:00:02;102015.19;;;12.22;49.80
84764;BME280;74992;51.072;6.088;2024-03-06T15:03:06;102019.44;;;12.17;50.45
84764;BME280;74992;51.072;6.088;2024-03-06T15:06:08;102023.56;;;12.08;51.30
84764;BME280;74992;51.072;6.088;2024-03-06T15:09:10;102019.09;;;11.99;50.35
84764;BME280;74992;51.072;6.088;2024-03-06T15:12:13;102028.63;;;12.03;51.43
84764;BME280;74992;51.072;6.088;2024-03-06T15:15:14;102026.97;;;12.05;49.75
84764;BME280;74992;51.072;6.088;2024-03-06T15:18:16;102038.13;;;12.03;49.03
84764;BME280;74992;51.072;6.088;2024-03-06T15:21:18;102037.19;;;11.99;51.36
84764;BME280;74992;51.072;6.088;2024-03-06T15:24:19;102031.09;;;11.95;52.76
84764;BME280;74992;51.072;6.088;2024-03-06T15:27:20;102036.13;;;11.88;51.33
84764;BME280;74992;51.072;6.088;2024-03-06T15:30:22;102037.84;;;11.87;51.51
84764;BME280;74992;51.072;6.088;2024-03-06T15:33:24;102040.56;;;11.93;50.00
84764;BME280;74992;51.072;6.088;2024-03-06T15:36:25;102035.47;;;11.98;49.53
84764;BME280;74992;51.072;6.088;2024-03-06T15:39:26;102033.75;;;11.98;49.04
84764;BME280;74992;51.072;6.088;2024-03-06T15:42:28;102034.59;;;11.99;49.13
84764;BME280;74992;51.072;6.088;2024-03-06T15:45:29;102036.31;;;11.98;48.65
84764;BME280;74992;51.072;6.088;2024-03-06T15:48:31;102039.75;;;11.97;48.94
84764;BME280;74992;51.072;6.088;2024-03-06T15:51:33;102042.28;;;11.93;49.74
84764;BME280;74992;51.072;6.088;2024-03-06T15:54:34;102036.94;;;11.84;49.51
84764;BME280;74992;51.072;6.088;2024-03-06T15:57:37;102039.50;;;11.84;49.62
84764;BME280;74992;51.072;6.088;2024-03-06T16:00:38;102037.56;;;11.74;48.50
84764;BME280;74992;51.072;6.088;2024-03-06T16:03:40;102034.78;;;11.64;50.54
84764;BME280;74992;51.072;6.088;2024-03-06T16:06:41;102036.44;;;11.59;50.72